Time;durP1;ratioP1;P1;durP2;ratioP2;P2;SDS_P1;SDS_P2;PMS_P1;PMS_P2;Temp;Humidity;BMP_temperature;BMP_pressure;BME280_temperature;BME280_humidity;BME280_pressure;Samples;Min_cycle;Max_cycle;Signal;HPM_P1;HPM_P2
2022/11/06 00:00:11;;;;;;;9.95;6.25;;;;;;;8.88;96.66;101399.19;5092994;28;20071;-70
2022/11/06 00:02:37;;;;;;;12.18;6.40;;;;;;;8.88;95.97;101397.31;5102841;28;20254;-69
2022/11/06 00:07:47;;;;;;;13.68;6.22;;;;;;;8.82;96.67;101398.97;5107479;28;20050;-70
2022/11/06 00:10:14;;;;;;;10.15;6.20;;;;;;;8.81;96.54;101402.72;5108419;28;20468;-70
2022/11/06 00:12:39;;;;;;;11.55;5.95;;;;;;;8.77;97.05;101395.16;5106919;28;20027;-70
2022/11/06 00:15:05;;;;;;;13.75;6.72;;;;;;;8.73;97.37;101391.97;5094972;28;20487;-69
2022/11/06 00:17:30;;;;;;;10.38;5.95;;;;;;;8.76;96.93;101398.94;5106333;28;20466;-70
2022/11/06 00:19:56;;;;;;;11.95;6.78;;;;;;;8.72;96.95;101395.78;5105909;28;20027;-69
2022/11/06 00:22:21;;;;;;;12.85;6.20;;;;;;;8.76;96.67;101393.44;5108707;28;20043;-69
2022/11/06 00:24:48;;;;;;;12.60;6.18;;;;;;;8.72;97.27;101393.03;5106924;28;20026;-70
2022/11/06 00:27:13;;;;;;;12.40;6.03;;;;;;;8.69;97.41;101393.44;5107302;27;20038;-69
2022/11/06 00:29:38;;;;;;;12.65;5.90;;;;;;;8.72;97.16;101392.19;5109318;28;20390;-69
2022/11/06 00:32:03;;;;;;;12.85;6.18;;;;;;;8.64;97.33;101384.16;5108991;28;20066;-69
2022/11/06 00:34:29;;;;;;;11.25;5.72;;;;;;;8.66;97.57;101377.41;5099431;28;20035;-70
2022/11/06 00:36:54;;;;;;;9.15;5.20;;;;;;;8.66;97.69;101376.56;5102626;28;20074;-69
2022/11/06 00:39:19;;;;;;;11.73;6.15;;;;;;;8.67;97.88;101379.13;5103550;28;20027;-70
2022/11/06 00:41:45;;;;;;;12.95;5.75;;;;;;;8.69;97.46;101377.00;5093169;28;20051;-69
2022/11/06 00:44:10;;;;;;;13.35;5.47;;;;;;;8.67;97.68;101364.56;5108003;28;20039;-69
2022/11/06 00:46:36;;;;;;;9.32;5.45;;;;;;;8.68;97.55;101364.38;5104957;28;20469;-71
2022/11/06 00:49:01;;;;;;;12.13;5.97;;;;;;;8.67;97.76;101362.69;5106411;27;20366;-70
2022/11/06 00:51:28;;;;;;;11.82;5.22;;;;;;;8.63;97.54;101369.63;5095889;27;20020;-70
2022/11/06 00:53:57;;;;;;;12.55;4.97;;;;;;;8.64;97.41;101385.00;5086722;28;20028;-69
2022/11/06 00:56:23;;;;;;;9.73;5.32;;;;;;;8.61;97.68;101379.91;5105490;28;20369;-69
2022/11/06 00:58:49;;;;;;;9.20;4.75;;;;;;;8.61;97.44;101379.06;5107668;28;20069;-70
2022/11/06 01:01:15;;;;;;;11.82;5.00;;;;;;;8.57;97.92;101376.75;5108293;28;20076;-70
2022/11/06 01:03:43;;;;;;;10.77;5.18;;;;;;;8.56;98.06;101380.53;5106574;28;20079;-70
2022/11/06 01:06:20;;;;;;;9.00;4.90;;;;;;;8.51;98.35;101380.28;5107007;28;20421;-70
2022/11/06 01:08:46;;;;;;;11.48;5.00;;;;;;;8.46;98.64;101380.06;5107732;28;20322;-70
2022/11/06 01:11:17;;;;;;;13.73;5.05;;;;;;;8.46;98.78;101382.78;5105150;28;20122;-69
2022/11/06 01:13:43;;;;;;;12.25;5.03;;;;;;;8.45;98.25;101380.28;5095086;28;20027;-69
2022/11/06 01:16:12;;;;;;;9.48;4.85;;;;;;;8.45;98.54;101377.53;5094003;28;20079;-69
2022/11/06 01:18:39;;;;;;;10.55;5.28;;;;;;;8.44;98.71;101378.59;5107416;28;20023;-70
2022/11/06 01:21:15;;;;;;;11.80;4.53;;;;;;;8.44;98.41;101367.63;5106312;28;20040;-70
2022/11/06 01:23:41;;;;;;;13.80;4.80;;;;;;;8.42;98.65;101365.13;5094301;28;20024;-69
2022/11/06 01:26:09;;;;;;;10.43;5.28;;;;;;;8.37;98.90;101356.66;5098751;28;20059;-69
2022/11/06 01:28:35;;;;;;;13.00;4.97;;;;;;;8.35;98.83;101353.25;5094668;28;20565;-70
2022/11/06 01:31:05;;;;;;;8.48;4.75;;;;;;;8.33;99.34;101350.72;5088328;28;20024;-69
2022/11/06 01:33:31;;;;;;;14.07;5.22;;;;;;;8.35;99.12;101352.41;5106821;28;20123;-70
2022/11/06 01:35:56;;;;;;;10.75;5.10;;;;;;;8.37;99.09;101339.41;5099810;28;20287;-70
2022/11/06 01:38:21;;;;;;;13.10;4.50;;;;;;;8.37;99.11;101340.25;5090569;28;20019;-70
2022/11/06 01:40:47;;;;;;;11.25;4.75;;;;;;;8.45;98.17;101341.94;5107741;28;20035;-70
2022/11/06 01:43:21;;;;;;;12.30;5.50;;;;;;;8.40;99.21;101344.44;5107250;28;20030;-70
2022/11/06 01:45:49;;;;;;;11.35;4.18;;;;;;;8.42;99.09;101339.63;5096598;28;20058;-70
2022/11/06 01:48:18;;;;;;;10.45;4.50;;;;;;;8.45;98.98;101331.00;5097403;28;20028;-70
2022/11/06 01:50:46;;;;;;;12.10;4.50;;;;;;;8.46;98.83;101332.69;5096257;28;20043;-70
2022/11/06 01:53:12;;;;;;;;;;;;;;;8.56;97.97;101344.09;5106124;28;20073;-70
2022/11/06 01:55:43;;;;;;;13.23;4.60;;;;;;;8.55;98.18;101325.97;5104988;28;19959;-70
2022/11/06 01:58:12;;;;;;;10.48;4.00;;;;;;;8.60;98.01;101333.56;5106336;28;20023;-70
2022/11/06 02:00:38;;;;;;;10.07;4.30;;;;;;;8.58;98.37;101337.38;5107425;28;20134;-70
2022/11/06 02:03:03;;;;;;;9.50;4.18;;;;;;;8.61;97.69;101330.63;5107260;28;20039;-69
2022/11/06 02:05:29;;;;;;;9.40;4.10;;;;;;;8.64;97.74;101324.75;5106743;28;20027;-69
2022/11/06 02:07:56;;;;;;;10.35;5.20;;;;;;;8.66;97.73;101321.78;5104206;28;20062;-70
2022/11/06 02:10:21;;;;;;;8.18;4.55;;;;;;;8.67;97.88;101323.47;5096758;28;20470;-70
2022/11/06 02:15:41;;;;;;;8.93;4.13;;;;;;;8.75;97.30;101313.19;5036940;28;20045;-69
2022/11/06 02:18:13;;;;;;;12.40;4.07;;;;;;;8.76;97.64;101316.75;5019900;28;20041;-69
2022/11/06 02:20:53;;;;;;;13.02;4.20;;;;;;;8.77;97.47;101313.00;5045422;28;20610;-70
2022/11/06 02:23:40;;;;;;;8.82;3.53;;;;;;;8.82;97.61;101311.31;5043774;28;20060;-70
2022/11/06 02:26:31;;;;;;;10.80;4.93;;;;;;;8.91;97.30;101305.63;5038684;28;20040;-69
2022/11/06 02:29:05;;;;;;;11.13;4.00;;;;;;;8.83;97.07;101299.31;5045880;28;20017;-69
2022/11/06 02:31:34;;;;;;;11.18;4.22;;;;;;;8.83;96.91;101291.09;5047140;28;20039;-70
2022/11/06 02:34:04;;;;;;;11.07;4.85;;;;;;;8.83;97.15;101293.84;5045823;28;20112;-69
2022/11/06 02:36:34;;;;;;;7.93;3.50;;;;;;;8.86;96.85;101294.44;5045429;28;20539;-70
2022/11/06 02:39:04;;;;;;;11.93;4.25;;;;;;;8.86;96.89;101295.28;5045089;28;20036;-69
2022/11/06 02:41:34;;;;;;;13.30;3.97;;;;;;;8.82;97.53;101292.16;5045628;28;20037;-70
2022/11/06 02:44:01;;;;;;;9.25;4.03;;;;;;;8.83;97.36;101288.34;5045994;28;20064;-69
2022/11/06 02:46:34;;;;;;;9.52;3.72;;;;;;;8.88;96.84;101286.88;5045486;28;20372;-70
2022/11/06 02:49:08;;;;;;;10.43;4.70;;;;;;;8.94;96.91;101272.34;5050262;28;20116;-69
2022/11/06 02:51:37;;;;;;;11.63;3.63;;;;;;;8.90;96.66;101284.78;5049242;28;20061;-69
2022/11/06 02:54:05;;;;;;;10.70;3.60;;;;;;;8.91;96.83;101289.19;5043230;28;20033;-69
2022/11/06 02:56:36;;;;;;;10.40;3.58;;;;;;;8.95;96.11;101290.47;5042059;28;20056;-69
2022/11/06 02:59:06;;;;;;;11.13;4.00;;;;;;;8.90;96.54;101284.78;5044007;28;20034;-68
2022/11/06 03:01:42;;;;;;;9.63;4.30;;;;;;;8.90;97.07;101282.03;5045608;28;20048;-69
2022/11/06 03:04:23;;;;;;;13.02;4.10;;;;;;;8.89;97.11;101288.56;5028275;28;20430;-69
2022/11/06 03:06:57;;;;;;;7.85;3.67;;;;;;;8.88;96.52;101286.88;5043617;28;20065;-69
2022/11/06 03:09:27;;;;;;;8.85;3.35;;;;;;;8.86;97.13;101288.97;5045338;28;20087;-69
2022/11/06 03:12:00;;;;;;;12.18;3.60;;;;;;;8.86;97.11;101295.28;5046396;28;20409;-69
2022/11/06 03:14:43;;;;;;;11.85;3.80;;;;;;;8.87;96.96;101296.13;5021033;28;20516;-69
2022/11/06 03:17:19;;;;;;;8.77;4.10;;;;;;;8.93;96.65;101306.28;5024259;28;20539;-69
2022/11/06 03:19:54;;;;;;;11.27;3.75;;;;;;;8.91;97.03;101302.88;5019002;28;20056;-69
2022/11/06 03:22:31;;;;;;;11.68;3.55;;;;;;;8.92;97.18;101291.75;5012156;28;20026;-69
2022/11/06 03:25:28;;;;;;;9.65;3.42;;;;;;;8.94;97.00;101284.16;5023026;28;20029;-69
2022/11/06 03:28:06;;;;;;;12.90;3.60;;;;;;;8.92;97.08;101282.66;5012528;28;20014;-70
2022/11/06 03:30:37;;;;;;;9.90;3.60;;;;;;;8.89;97.02;101263.91;5026665;28;20079;-69
2022/11/06 03:33:15;;;;;;;10.00;4.20;;;;;;;8.84;97.47;101257.16;5029686;28;20116;-69
2022/11/06 03:35:48;;;;;;;10.40;3.70;;;;;;;8.83;97.13;101269.19;5029174;28;20073;-69
2022/11/06 03:38:40;;;;;;;8.80;3.38;;;;;;;8.76;97.72;101262.84;5029338;28;20026;-70
2022/11/06 03:41:13;;;;;;;10.60;3.80;;;;;;;8.82;97.47;101252.97;5029741;28;20036;-69
2022/11/06 03:43:41;;;;;;;9.75;3.70;;;;;;;8.80;97.70;101247.69;5028501;28;20148;-69
2022/11/06 03:46:14;;;;;;;7.97;3.80;;;;;;;8.80;97.63;101247.69;5028841;28;20034;-69
2022/11/06 03:48:45;;;;;;;12.20;3.95;;;;;;;8.83;97.43;101247.25;5027592;28;20052;-69
2022/11/06 03:51:21;;;;;;;14.02;3.75;;;;;;;8.85;97.70;101238.84;5027855;28;20064;-69
2022/11/06 03:53:50;;;;;;;7.88;3.42;;;;;;;8.82;98.03;101226.41;5027694;28;20049;-69
2022/11/06 03:56:29;;;;;;;9.20;3.70;;;;;;;8.86;97.81;101224.06;5028647;28;20034;-69
2022/11/06 03:58:57;;;;;;;8.40;3.42;;;;;;;8.88;97.60;101222.00;5028813;28;20033;-70
2022/11/06 04:01:27;;;;;;;9.07;3.53;;;;;;;8.92;97.45;101217.78;5028357;28;20430;-70
2022/11/06 04:03:58;;;;;;;10.90;3.50;;;;;;;8.92;97.59;101219.66;5028465;28;20303;-69
2022/11/06 04:06:32;;;;;;;7.68;3.50;;;;;;;8.93;97.65;101213.97;5028596;28;20155;-69
2022/11/06 04:14:35;;;;;;;11.50;3.83;;;;;;;8.93;97.34;101222.19;5027505;28;20056;-69
2022/11/06 04:17:05;;;;;;;8.60;3.60;;;;;;;8.93;97.69;101215.88;5028636;28;20438;-69
2022/11/06 04:19:30;;;;;;;9.82;3.92;;;;;;;8.94;97.24;101207.44;5028973;28;20093;-69
2022/11/06 04:22:24;;;;;;;11.00;4.18;;;;;;;8.93;97.57;101208.50;5026332;28;20096;-70
2022/11/06 04:28:12;;;;;;;9.68;3.97;;;;;;;8.95;97.99;101200.06;5027887;28;20087;-69
2022/11/06 04:30:48;;;;;;;9.68;3.78;;;;;;;8.95;98.49;101195.44;5027671;28;20044;-69
2022/11/06 04:33:21;;;;;;;9.13;3.53;;;;;;;8.95;98.25;101179.00;5026940;28;20041;-69
2022/11/06 04:36:01;;;;;;;12.13;3.85;;;;;;;8.97;98.05;101181.50;5019952;28;20051;-69
2022/11/06 04:38:29;;;;;;;9.82;3.63;;;;;;;8.93;97.99;101175.63;5027267;28;20032;-69
2022/11/06 04:41:08;;;;;;;8.23;3.58;;;;;;;8.92;98.13;101184.03;5028072;28;20040;-69
2022/11/06 04:43:58;;;;;;;11.93;3.53;;;;;;;8.84;98.81;101177.72;5023731;28;20052;-69
2022/11/06 04:46:31;;;;;;;11.15;3.58;;;;;;;8.80;98.94;101173.72;5022163;28;20613;-69
2022/11/06 04:48:57;;;;;;;11.15;3.78;;;;;;;8.76;99.06;101180.69;5026444;28;20124;-70
2022/11/06 04:51:28;;;;;;;11.07;3.75;;;;;;;8.77;99.22;101176.91;5025757;28;20101;-69
2022/11/06 04:53:54;;;;;;;10.13;3.78;;;;;;;8.74;99.92;101171.00;5025580;28;20029;-69
2022/11/06 04:56:24;;;;;;;8.68;3.08;;;;;;;8.72;100.00;101165.75;5026456;28;20632;-69
2022/11/06 04:58:49;;;;;;;10.95;3.67;;;;;;;8.71;100.00;101168.66;5027430;28;20459;-69
2022/11/06 05:01:15;;;;;;;8.93;3.75;;;;;;;8.70;100.00;101169.72;5028393;28;20040;-69
2022/11/06 05:03:40;;;;;;;11.07;3.80;;;;;;;8.70;100.00;101167.84;5027707;28;20663;-69
2022/11/06 05:06:05;;;;;;;9.68;3.55;;;;;;;8.67;100.00;101160.06;5025134;28;20092;-70
2022/11/06 05:08:30;;;;;;;8.93;3.85;;;;;;;8.65;100.00;101162.13;5027259;28;20045;-70
2022/11/06 05:10:56;;;;;;;10.30;3.67;;;;;;;8.66;100.00;101168.47;5009634;28;20029;-69
2022/11/06 05:13:21;;;;;;;9.40;4.00;;;;;;;8.61;100.00;101154.56;5027878;28;20053;-69
2022/11/06 05:15:46;;;;;;;8.18;3.55;;;;;;;8.61;100.00;101162.78;5025891;28;20353;-69
2022/11/06 05:18:12;;;;;;;7.18;3.50;;;;;;;8.57;100.00;101157.72;5026854;28;20483;-69
2022/11/06 05:20:37;;;;;;;10.18;3.70;;;;;;;8.56;100.00;101152.44;5027244;28;20120;-69
2022/11/06 05:23:02;;;;;;;8.40;4.20;;;;;;;8.58;100.00;101150.38;5024704;28;20029;-69
2022/11/06 05:25:30;;;;;;;11.00;4.55;;;;;;;8.54;100.00;101149.94;5025113;28;20047;-69
2022/11/06 05:27:56;;;;;;;7.43;3.60;;;;;;;8.54;100.00;101151.81;5025907;28;20087;-69
2022/11/06 05:30:23;;;;;;;8.90;4.07;;;;;;;8.51;100.00;101152.22;5027803;28;20048;-69
2022/11/06 05:32:49;;;;;;;9.60;4.10;;;;;;;8.52;100.00;101156.69;5026707;28;20021;-70
2022/11/06 05:35:15;;;;;;;7.03;3.40;;;;;;;8.54;100.00;101154.56;5025694;28;20044;-69
2022/11/06 05:37:40;;;;;;;10.57;4.07;;;;;;;8.52;100.00;101152.03;5026790;28;20045;-69
2022/11/06 05:40:07;;;;;;;12.57;3.65;;;;;;;8.49;100.00;101144.25;5027626;28;20029;-69
2022/11/06 05:42:33;;;;;;;8.80;3.97;;;;;;;8.54;100.00;101144.44;5027942;28;20021;-69
2022/11/06 05:44:58;;;;;;;12.23;3.88;;;;;;;8.54;100.00;101135.41;5025299;28;20387;-69
2022/11/06 05:47:23;;;;;;;9.57;3.92;;;;;;;8.56;100.00;101136.03;5026665;28;20041;-69
2022/11/06 05:49:49;;;;;;;11.50;3.80;;;;;;;8.58;100.00;101145.72;5023517;28;20037;-69
2022/11/06 05:52:14;;;;;;;11.65;4.05;;;;;;;8.62;100.00;101140.69;5025890;28;20140;-70
2022/11/06 05:54:39;;;;;;;12.45;4.38;;;;;;;8.62;100.00;101134.34;5026481;28;20021;-69
2022/11/06 05:57:05;;;;;;;8.65;3.60;;;;;;;8.61;100.00;101119.81;5026569;28;20039;-69
2022/11/06 05:59:30;;;;;;;10.13;3.70;;;;;;;8.60;100.00;101120.88;5026752;28;20117;-69
2022/11/06 06:01:55;;;;;;;10.05;3.75;;;;;;;8.60;100.00;101120.03;5023946;28;20059;-69
2022/11/06 06:04:20;;;;;;;8.55;3.67;;;;;;;8.58;100.00;101117.50;5027083;28;20026;-70
2022/11/06 06:06:46;;;;;;;9.18;3.80;;;;;;;8.61;100.00;101108.84;5009308;28;20033;-69
2022/11/06 06:09:11;;;;;;;8.65;3.80;;;;;;;8.59;100.00;101108.22;5025146;28;20029;-70
2022/11/06 06:11:36;;;;;;;7.22;3.60;;;;;;;8.60;100.00;101123.59;5025608;28;20037;-69
2022/11/06 06:14:02;;;;;;;9.35;3.50;;;;;;;8.58;100.00;101112.88;5039163;28;20037;-70
2022/11/06 06:16:28;;;;;;;7.07;3.20;;;;;;;8.59;100.00;101116.44;5047534;28;20749;-69
2022/11/06 06:18:53;;;;;;;9.18;3.80;;;;;;;8.63;100.00;101117.72;5046745;28;20039;-69
2022/11/06 06:21:18;;;;;;;9.50;3.97;;;;;;;8.61;100.00;101114.31;5047001;28;20538;-69
2022/11/06 06:23:44;;;;;;;8.38;3.83;;;;;;;8.62;100.00;101096.00;5046050;28;20033;-69
2022/11/06 06:26:09;;;;;;;10.90;4.10;;;;;;;8.62;100.00;101102.34;5043980;28;20067;-69
2022/11/06 06:28:34;;;;;;;8.93;3.90;;;;;;;8.65;100.00;101099.16;5045251;28;20036;-69
2022/11/06 06:31:06;;;;;;;7.63;3.42;;;;;;;8.71;100.00;101105.69;5045464;28;20494;-69
2022/11/06 06:33:32;;;;;;;7.30;3.53;;;;;;;8.73;100.00;101109.06;5046863;28;20119;-69
2022/11/06 06:35:57;;;;;;;12.90;3.65;;;;;;;8.78;100.00;101107.38;5044649;28;20120;-69
2022/11/06 06:38:24;;;;;;;8.32;3.58;;;;;;;8.82;100.00;101108.66;5044873;28;20033;-69
2022/11/06 06:40:50;;;;;;;8.27;3.35;;;;;;;8.93;99.95;101118.09;5044787;28;20036;-69
2022/11/06 06:43:15;;;;;;;8.32;3.25;;;;;;;8.82;100.00;101118.75;5047229;28;20021;-70
2022/11/06 06:45:40;;;;;;;9.73;3.50;;;;;;;8.86;100.00;101116.41;5045185;28;20082;-70
2022/11/06 06:48:06;;;;;;;10.10;3.85;;;;;;;8.88;100.00;101114.31;5048575;28;20059;-69
2022/11/06 06:50:32;;;;;;;8.25;3.67;;;;;;;8.89;100.00;101114.09;5051135;28;20029;-69
2022/11/06 06:52:57;;;;;;;6.85;3.13;;;;;;;8.89;100.00;101118.75;5049401;28;20472;-70
2022/11/06 06:55:24;;;;;;;11.77;3.20;;;;;;;8.89;100.00;101110.53;5045929;28;20503;-70
2022/11/06 06:57:56;;;;;;;9.88;3.60;;;;;;;8.87;100.00;101104.41;5049732;28;20029;-70
2022/11/06 07:00:21;;;;;;;11.02;3.58;;;;;;;8.87;100.00;101096.19;5050603;28;20627;-69
2022/11/06 07:02:46;;;;;;;8.70;3.45;;;;;;;8.92;100.00;101089.03;5049087;28;20145;-69
2022/11/06 07:05:11;;;;;;;9.52;3.42;;;;;;;8.94;100.00;101094.28;5048112;28;20021;-70
2022/11/06 07:07:37;;;;;;;6.63;3.50;;;;;;;8.97;99.88;101099.31;5049157;28;20036;-70
2022/11/06 07:10:03;;;;;;;13.52;3.22;;;;;;;9.02;99.91;101094.91;5049315;28;20033;-69
2022/11/06 07:12:28;;;;;;;8.32;3.20;;;;;;;9.11;99.24;101103.72;5047770;28;20049;-70
2022/11/06 07:14:53;;;;;;;9.82;3.28;;;;;;;9.19;98.82;101095.28;5031535;28;20049;-70
2022/11/06 07:17:18;;;;;;;9.27;3.55;;;;;;;9.22;99.32;101091.25;5029699;28;20029;-69
2022/11/06 07:19:44;;;;;;;9.75;3.25;;;;;;;9.28;98.54;101082.19;5030216;28;20796;-70
2022/11/06 07:22:09;;;;;;;9.18;3.30;;;;;;;9.32;98.35;101087.00;5028323;28;20061;-69
2022/11/06 07:24:34;;;;;;;9.65;3.00;;;;;;;9.39;97.93;101087.00;5028514;28;20032;-70
2022/11/06 07:26:59;;;;;;;5.55;3.00;;;;;;;9.43;97.62;101081.88;5025707;28;20109;-70
2022/11/06 07:29:25;;;;;;;8.77;3.55;;;;;;;9.48;96.82;101088.44;5027895;28;20473;-70
2022/11/06 07:31:50;;;;;;;6.82;3.38;;;;;;;9.51;97.19;101078.91;5029964;28;20149;-70
2022/11/06 07:34:15;;;;;;;9.43;3.40;;;;;;;9.63;95.93;101088.16;5030266;28;20104;-70
2022/11/06 07:36:40;;;;;;;8.57;3.65;;;;;;;9.67;96.28;101089.38;5026545;28;20041;-69
2022/11/06 07:39:06;;;;;;;7.97;2.97;;;;;;;9.73;96.18;101091.28;5029151;28;20040;-70
2022/11/06 07:41:31;;;;;;;7.22;2.92;;;;;;;9.76;95.63;101084.47;5029384;28;20068;-70
2022/11/06 07:43:56;;;;;;;7.38;2.95;;;;;;;9.79;95.05;101084.91;5022234;28;20043;-69
2022/11/06 07:46:21;;;;;;;8.77;3.42;;;;;;;9.83;95.02;101088.88;5029080;28;20379;-70
2022/11/06 07:48:47;;;;;;;9.30;2.97;;;;;;;9.86;95.06;101082.94;5028202;28;20387;-69
2022/11/06 07:51:12;;;;;;;7.95;3.28;;;;;;;9.88;94.82;101069.88;5027515;28;20033;-69
2022/11/06 07:53:38;;;;;;;8.52;2.72;;;;;;;9.92;94.73;101074.88;5024901;28;20037;-69
2022/11/06 07:56:04;;;;;;;9.43;3.17;;;;;;;9.96;94.55;101071.47;5026782;28;20116;-69
2022/11/06 07:58:29;;;;;;;7.18;2.50;;;;;;;9.99;94.87;101065.56;5027136;28;20040;-69
2022/11/06 08:00:57;;;;;;;6.75;2.70;;;;;;;10.06;94.46;101068.25;5027357;28;20053;-70
2022/11/06 08:03:24;;;;;;;8.45;2.92;;;;;;;10.07;93.92;101092.72;5026448;28;20430;-70
2022/11/06 08:05:49;;;;;;;6.93;2.75;;;;;;;10.04;94.09;101060.25;5028610;28;20075;-70
2022/11/06 08:08:15;;;;;;;8.45;3.38;;;;;;;10.06;93.58;101069.09;5027852;28;20025;-69
2022/11/06 08:10:42;;;;;;;7.90;2.75;;;;;;;10.04;94.00;101067.66;5026451;28;20029;-69
2022/11/06 08:13:11;;;;;;;6.65;3.13;;;;;;;10.02;94.59;101067.00;5026791;28;20104;-70
2022/11/06 08:15:38;;;;;;;8.57;2.60;;;;;;;10.04;93.84;101068.50;5026608;28;20029;-70
2022/11/06 08:18:04;;;;;;;7.25;3.05;;;;;;;10.02;94.12;101076.09;5028365;28;20049;-70
2022/11/06 08:20:29;;;;;;;8.25;2.72;;;;;;;10.03;93.90;101066.78;5023315;28;20021;-70
2022/11/06 08:22:59;;;;;;;8.23;2.70;;;;;;;10.10;93.91;101061.28;5026666;28;20349;-69
2022/11/06 08:25:25;;;;;;;6.50;2.85;;;;;;;10.09;94.01;101062.34;5027249;28;20027;-70
2022/11/06 08:27:53;;;;;;;6.38;2.50;;;;;;;10.22;92.68;101058.63;5027250;28;20033;-69
2022/11/06 08:30:18;;;;;;;6.00;2.70;;;;;;;10.25;93.25;101042.59;5026309;28;20025;-69
2022/11/06 08:32:44;;;;;;;8.10;2.30;;;;;;;10.34;92.42;101051.38;5027438;28;21555;-70
2022/11/06 08:35:09;;;;;;;7.50;2.53;;;;;;;10.39;92.39;101046.91;5027004;28;20084;-69
2022/11/06 08:37:35;;;;;;;7.65;2.63;;;;;;;10.44;92.42;101057.22;5026052;28;20040;-70
2022/11/06 08:40:00;;;;;;;6.05;2.72;;;;;;;10.53;92.07;101035.78;5027392;28;20026;-70
2022/11/06 08:42:26;;;;;;;7.95;2.83;;;;;;;10.55;91.49;101033.69;5005067;28;20032;-70
2022/11/06 08:44:51;;;;;;;6.45;2.38;;;;;;;10.61;90.91;101039.09;5025601;28;20035;-69
2022/11/06 08:47:16;;;;;;;6.22;2.50;;;;;;;10.64;90.49;101030.41;5028523;28;20036;-70
2022/11/06 08:49:41;;;;;;;8.77;2.58;;;;;;;10.70;90.39;101034.16;5026320;28;20028;-69
2022/11/06 08:52:07;;;;;;;8.98;2.38;;;;;;;10.83;90.78;101038.66;5024543;28;20032;-69
2022/11/06 08:54:32;;;;;;;6.13;2.42;;;;;;;11.03;89.42;101028.28;5027751;28;20072;-69
2022/11/06 08:56:57;;;;;;;5.72;2.58;;;;;;;11.23;88.61;101029.97;5026722;28;20439;-70
2022/11/06 08:59:22;;;;;;;6.78;2.35;;;;;;;11.35;87.32;101017.09;5027261;28;20046;-69
2022/11/06 09:01:48;;;;;;;8.07;1.83;;;;;;;11.38;86.72;101022.97;5026287;28;20029;-69
2022/11/06 09:04:13;;;;;;;5.97;2.22;;;;;;;11.35;86.32;101017.09;5027301;28;20036;-69
2022/11/06 09:06:38;;;;;;;5.38;2.40;;;;;;;11.28;86.41;101016.38;5024211;28;20033;-69
2022/11/06 09:09:04;;;;;;;5.78;2.50;;;;;;;11.25;86.90;101022.31;5027233;28;20041;-69
2022/11/06 09:11:29;;;;;;;7.97;2.40;;;;;;;11.19;87.36;101007.59;5027639;28;20036;-70
2022/11/06 09:13:54;;;;;;;8.13;2.40;;;;;;;11.17;87.23;100996.81;5040200;28;20045;-69
2022/11/06 09:16:19;;;;;;;6.15;2.50;;;;;;;11.19;86.95;100982.84;5067317;28;20063;-69
2022/11/06 09:18:45;;;;;;;8.10;2.30;;;;;;;11.15;86.90;100989.88;5049981;28;20040;-70
2022/11/06 09:21:10;;;;;;;7.38;2.20;;;;;;;11.17;87.02;100985.00;5060065;28;20096;-69
2022/11/06 09:23:35;;;;;;;6.72;2.95;;;;;;;11.24;86.56;100982.97;5049154;28;20040;-70
2022/11/06 09:26:00;;;;;;;8.68;2.78;;;;;;;11.29;87.25;100974.88;5046699;28;20048;-69
2022/11/06 09:28:26;;;;;;;6.55;2.13;;;;;;;11.48;86.68;100969.34;5047664;28;20021;-69
2022/11/06 09:30:51;;;;;;;7.15;2.38;;;;;;;11.75;85.46;100958.78;5059137;28;20447;-69
2022/11/06 09:33:16;;;;;;;6.95;2.10;;;;;;;12.43;82.02;100961.88;5052731;28;20028;-70
2022/11/06 09:35:42;;;;;;;7.13;1.88;;;;;;;13.38;78.09;100941.28;5046913;28;20108;-70
2022/11/06 09:38:10;;;;;;;4.88;1.75;;;;;;;14.32;72.90;100946.19;5042957;28;20052;-71
2022/11/06 09:40:41;;;;;;;;;;;;;;;14.28;72.27;100954.13;5046330;28;20033;-69
2022/11/06 09:43:18;;;;;;;6.55;2.10;;;;;;;14.75;69.37;100942.69;5047016;28;20324;-68
2022/11/06 09:45:47;;;;;;;5.05;1.95;;;;;;;14.67;69.10;100958.88;5030460;28;20513;-68
2022/11/06 09:48:31;;;;;;;7.55;1.80;;;;;;;14.10;70.31;100956.34;5046390;28;20040;-68
2022/11/06 09:51:05;;;;;;;6.22;1.83;;;;;;;14.43;71.81;100948.00;5041558;28;20404;-68
2022/11/06 09:53:36;;;;;;;5.50;2.10;;;;;;;15.94;65.18;100935.44;5031934;28;20540;-68
2022/11/06 09:56:04;;;;;;;10.68;3.65;;;;;;;15.74;65.02;100940.78;5046352;28;20029;-67
2022/11/06 09:58:37;;;;;;;10.70;3.63;;;;;;;15.04;67.36;100946.09;5046986;28;20033;-68
2022/11/06 10:01:15;;;;;;;9.35;2.38;;;;;;;14.66;69.03;100952.53;5060184;28;20402;-68
2022/11/06 10:03:48;;;;;;;6.00;1.90;;;;;;;14.15;69.74;100950.91;5045522;28;20032;-68
2022/11/06 10:06:21;;;;;;;8.98;2.53;;;;;;;13.59;73.17;100947.19;5046124;28;20032;-69
2022/11/06 10:08:47;;;;;;;8.80;2.20;;;;;;;13.31;73.70;100937.00;5046266;28;20025;-68
2022/11/06 10:11:12;;;;;;;6.30;2.20;;;;;;;13.18;75.09;100944.47;5027969;28;20032;-68
2022/11/06 10:14:00;;;;;;;7.77;2.33;;;;;;;13.13;74.53;100932.50;5057053;28;20041;-68
2022/11/06 10:16:47;;;;;;;5.20;1.50;;;;;;;13.01;75.20;100935.28;5055729;28;20029;-68
2022/11/06 10:19:31;;;;;;;9.60;2.80;;;;;;;13.57;74.59;100927.25;5063541;28;20056;-67
2022/11/06 10:22:38;;;;;;;7.47;2.10;;;;;;;15.50;67.60;100918.09;5063085;28;20448;-67
2022/11/06 10:25:03;;;;;;;7.20;2.25;;;;;;;16.52;62.97;100914.19;5055096;28;20040;-68
2022/11/06 10:27:32;;;;;;;6.17;2.40;;;;;;;17.44;59.95;100902.66;5066058;28;20028;-68
2022/11/06 10:30:09;;;;;;;8.52;3.05;;;;;;;16.64;60.22;100911.22;5065508;28;20055;-67
2022/11/06 10:33:03;;;;;;;6.20;2.20;;;;;;;15.51;66.02;100925.28;5064320;28;20424;-67
2022/11/06 10:35:41;;;;;;;5.05;2.03;;;;;;;14.38;68.67;100917.53;5064702;28;20048;-67
2022/11/06 10:38:11;;;;;;;;;;;;;;;14.16;70.08;100917.50;5065046;28;20051;-68
2022/11/06 10:40:37;;;;;;;7.68;2.22;;;;;;;13.59;70.72;100912.16;5065095;28;20572;-68
2022/11/06 10:43:34;;;;;;;6.50;2.20;;;;;;;13.39;73.38;100920.06;5045255;28;20494;-68
2022/11/06 10:46:34;;;;;;;8.18;2.28;;;;;;;13.22;73.57;100903.44;5045860;28;20028;-68
2022/11/06 10:49:04;;;;;;;7.30;2.50;;;;;;;13.13;73.91;100913.19;5045546;28;20059;-68
2022/11/06 10:51:47;;;;;;;7.68;2.40;;;;;;;13.27;74.11;100898.03;5062847;28;20020;-68
2022/11/06 10:54:19;;;;;;;7.28;2.25;;;;;;;13.43;72.97;100883.44;5065215;28;20135;-68
2022/11/06 10:56:59;;;;;;;5.13;1.80;;;;;;;13.42;72.74;100875.41;5066378;28;20047;-68
2022/11/06 10:59:26;;;;;;;6.43;2.08;;;;;;;13.80;70.85;100869.16;5061574;28;20045;-68
2022/11/06 11:01:51;;;;;;;6.57;2.05;;;;;;;13.92;69.20;100869.88;5045603;28;20025;-68
2022/11/06 11:04:16;;;;;;;5.40;1.92;;;;;;;14.33;69.15;100876.00;5046155;28;20075;-68
2022/11/06 11:06:41;;;;;;;8.18;1.92;;;;;;;14.86;66.61;100862.63;5044871;28;20449;-68
2022/11/06 11:09:30;;;;;;;7.90;1.80;;;;;;;14.69;67.92;100857.16;5044700;28;20127;-68
2022/11/06 11:11:57;;;;;;;7.13;1.90;;;;;;;14.10;68.37;100859.69;5050009;28;20476;-68
2022/11/06 11:14:25;;;;;;;5.43;2.08;;;;;;;13.96;68.70;100860.03;5013246;28;20129;-68
2022/11/06 11:16:51;;;;;;;6.38;2.33;;;;;;;14.21;67.12;100845.75;5005702;28;20055;-68
2022/11/06 11:19:23;;;;;;;9.98;2.47;;;;;;;13.87;68.50;100844.97;5009699;28;20041;-68
2022/11/06 11:21:57;;;;;;;9.27;2.42;;;;;;;13.64;70.27;100853.44;5024100;28;20025;-69
2022/11/06 11:24:23;;;;;;;7.75;2.30;;;;;;;13.33;71.34;100857.56;5024153;28;20044;-68
2022/11/06 11:26:53;;;;;;;8.27;2.13;;;;;;;13.36;70.93;100846.88;5006213;28;20030;-68
2022/11/06 11:29:55;;;;;;;8.93;2.35;;;;;;;13.29;71.63;100845.41;5006099;28;20362;-68
2022/11/06 11:32:20;;;;;;;9.20;2.92;;;;;;;12.98;71.49;100836.53;4947795;28;20035;-68
2022/11/06 11:34:50;;;;;;;8.43;2.47;;;;;;;12.97;71.63;100832.06;5015398;28;20051;-67
2022/11/06 11:37:32;;;;;;;8.40;2.47;;;;;;;12.86;72.47;100822.78;5029379;28;20418;-68
2022/11/06 11:40:17;;;;;;;8.40;2.10;;;;;;;12.84;71.87;100827.72;5025521;28;20036;-68
2022/11/06 11:42:42;;;;;;;11.23;2.47;;;;;;;12.82;72.25;100818.84;5028071;28;20017;-68
2022/11/06 11:45:07;;;;;;;8.00;2.10;;;;;;;12.81;71.16;100817.16;5027554;28;20143;-68
2022/11/06 11:47:34;;;;;;;7.93;2.60;;;;;;;12.61;71.58;100803.81;5027623;28;20042;-68
2022/11/06 11:50:33;;;;;;;8.57;2.10;;;;;;;12.53;71.96;100801.47;5027560;28;20029;-69